Archival Weather

Republic

Farmingdale, New York (KFRG)

Report from: Wednesday, February 7, 2024 5:53 PM EST
Current time: Monday, June 24, 2024 5:27 AM EDT

Current weather – Weather history – Daily summaries
Weather forecast

Temperature6.7°C (44.1°F)
Dew point-5.0°C (23.0°F)
Winds Calm
Visibility10 mi. (16.1 km)
Clouds Sky clear
Altimeter30.28 in.Hg (1025 mB)
Relative humidity43 %
Density altitude-1,335 ft. (-407 m)
Sea-level pressure102.5 kPa (1025 mB, 30.27 in.Hg)
Remarks Fully automated report
Automated weather observing station without precipitation discriminator
Flight conditions Visual Meteorological Conditions
Raw dataKFRG 072253Z AUTO 00000KT 10SM CLR 07/M05 A3028 RMK AO1 SLP252 T00671050
An error has occurred. This application may no longer respond until reloaded. Reload 🗙